sensor_id;sensor_type;location;lat;lon;timestamp;temperature;humidity
27671;DHT22;15077;49.704;9.908;2023-05-14T00:01:40;15.10;59.70
27671;DHT22;15077;49.704;9.908;2023-05-14T00:04:06;15.00;59.70
27671;DHT22;15077;49.704;9.908;2023-05-14T00:06:32;15.00;59.70
27671;DHT22;15077;49.704;9.908;2023-05-14T00:08:58;14.90;59.90
27671;DHT22;15077;49.704;9.908;2023-05-14T00:11:24;14.90;59.90
27671;DHT22;15077;49.704;9.908;2023-05-14T00:13:50;14.90;60.00
27671;DHT22;15077;49.704;9.908;2023-05-14T00:16:16;14.80;60.00
27671;DHT22;15077;49.704;9.908;2023-05-14T00:18:44;14.80;60.00
27671;DHT22;15077;49.704;9.908;2023-05-14T00:21:10;14.80;60.00
27671;DHT22;15077;49.704;9.908;2023-05-14T00:23:37;14.70;60.00
27671;DHT22;15077;49.704;9.908;2023-05-14T00:26:03;14.70;60.10
27671;DHT22;15077;49.704;9.908;2023-05-14T00:28:30;14.70;60.10
27671;DHT22;15077;49.704;9.908;2023-05-14T00:30:57;14.70;60.20
27671;DHT22;15077;49.704;9.908;2023-05-14T00:33:24;14.60;60.10
27671;DHT22;15077;49.704;9.908;2023-05-14T00:35:51;14.60;60.10
27671;DHT22;15077;49.704;9.908;2023-05-14T00:38:17;14.60;60.30
27671;DHT22;15077;49.704;9.908;2023-05-14T00:40:49;14.60;60.30
27671;DHT22;15077;49.704;9.908;2023-05-14T00:43:20;14.50;60.20
27671;DHT22;15077;49.704;9.908;2023-05-14T00:45:48;14.50;60.30
27671;DHT22;15077;49.704;9.908;2023-05-14T00:48:16;14.50;60.30
27671;DHT22;15077;49.704;9.908;2023-05-14T00:50:42;14.40;60.30
27671;DHT22;15077;49.704;9.908;2023-05-14T00:53:09;14.40;60.40
27671;DHT22;15077;49.704;9.908;2023-05-14T00:55:37;14.40;60.40
27671;DHT22;15077;49.704;9.908;2023-05-14T00:58:11;14.40;60.50
27671;DHT22;15077;49.704;9.908;2023-05-14T01:00:40;14.40;60.60
27671;DHT22;15077;49.704;9.908;2023-05-14T01:03:07;14.30;60.50
27671;DHT22;15077;49.704;9.908;2023-05-14T01:08:45;14.30;60.90
27671;DHT22;15077;49.704;9.908;2023-05-14T01:14:20;14.30;60.70
27671;DHT22;15077;49.704;9.908;2023-05-14T01:16:55;14.20;60.80
27671;DHT22;15077;49.704;9.908;2023-05-14T01:19:32;14.20;60.60
27671;DHT22;15077;49.704;9.908;2023-05-14T01:22:02;14.10;60.60
27671;DHT22;15077;49.704;9.908;2023-05-14T01:24:28;14.10;60.60
27671;DHT22;15077;49.704;9.908;2023-05-14T01:27:09;14.10;61.30
27671;DHT22;15077;49.704;9.908;2023-05-14T01:29:39;14.10;61.40
27671;DHT22;15077;49.704;9.908;2023-05-14T01:32:10;14.10;60.70
27671;DHT22;15077;49.704;9.908;2023-05-14T01:34:39;14.00;60.70
27671;DHT22;15077;49.704;9.908;2023-05-14T01:37:08;14.00;60.80
27671;DHT22;15077;49.704;9.908;2023-05-14T01:39:38;14.00;60.80
27671;DHT22;15077;49.704;9.908;2023-05-14T01:42:04;14.00;60.80
27671;DHT22;15077;49.704;9.908;2023-05-14T01:44:32;14.00;60.80
27671;DHT22;15077;49.704;9.908;2023-05-14T01:46:59;14.00;60.80
27671;DHT22;15077;49.704;9.908;2023-05-14T01:49:27;13.90;60.80
27671;DHT22;15077;49.704;9.908;2023-05-14T01:51:56;13.90;60.80
27671;DHT22;15077;49.704;9.908;2023-05-14T01:54:22;13.90;60.80
27671;DHT22;15077;49.704;9.908;2023-05-14T01:56:48;13.90;60.80
27671;DHT22;15077;49.704;9.908;2023-05-14T01:59:14;13.80;60.90
27671;DHT22;15077;49.704;9.908;2023-05-14T02:01:45;13.80;61.40
27671;DHT22;15077;49.704;9.908;2023-05-14T02:04:13;13.80;60.90
27671;DHT22;15077;49.704;9.908;2023-05-14T02:06:40;13.70;60.90
27671;DHT22;15077;49.704;9.908;2023-05-14T02:09:07;13.70;60.90
27671;DHT22;15077;49.704;9.908;2023-05-14T02:11:34;13.70;60.90
27671;DHT22;15077;49.704;9.908;2023-05-14T02:14:00;13.70;60.90
27671;DHT22;15077;49.704;9.908;2023-05-14T02:16:27;13.60;60.90
27671;DHT22;15077;49.704;9.908;2023-05-14T02:18:55;13.60;60.90
27671;DHT22;15077;49.704;9.908;2023-05-14T02:21:22;13.60;61.00
27671;DHT22;15077;49.704;9.908;2023-05-14T02:23:48;13.60;61.00
27671;DHT22;15077;49.704;9.908;2023-05-14T02:26:16;13.60;61.10
27671;DHT22;15077;49.704;9.908;2023-05-14T02:28:45;13.50;61.10
27671;DHT22;15077;49.704;9.908;2023-05-14T02:31:11;13.50;61.10
27671;DHT22;15077;49.704;9.908;2023-05-14T02:33:37;13.50;61.10
27671;DHT22;15077;49.704;9.908;2023-05-14T02:36:04;13.40;61.10
27671;DHT22;15077;49.704;9.908;2023-05-14T02:38:31;13.40;61.80
27671;DHT22;15077;49.704;9.908;2023-05-14T02:40:58;13.40;61.20
27671;DHT22;15077;49.704;9.908;2023-05-14T02:43:25;13.40;61.20
27671;DHT22;15077;49.704;9.908;2023-05-14T02:45:50;13.30;61.20
27671;DHT22;15077;49.704;9.908;2023-05-14T02:48:17;13.30;61.20
27671;DHT22;15077;49.704;9.908;2023-05-14T02:50:43;13.30;61.30
27671;DHT22;15077;49.704;9.908;2023-05-14T02:53:09;13.30;61.30
27671;DHT22;15077;49.704;9.908;2023-05-14T02:55:35;13.30;61.40
27671;DHT22;15077;49.704;9.908;2023-05-14T02:58:00;13.20;61.30
27671;DHT22;15077;49.704;9.908;2023-05-14T03:00:26;13.20;61.30
27671;DHT22;15077;49.704;9.908;2023-05-14T03:02:53;13.20;61.40
27671;DHT22;15077;49.704;9.908;2023-05-14T03:05:21;13.20;61.40
27671;DHT22;15077;49.704;9.908;2023-05-14T03:07:50;13.10;61.40
27671;DHT22;15077;49.704;9.908;2023-05-14T03:10:17;13.10;61.40
27671;DHT22;15077;49.704;9.908;2023-05-14T03:12:44;13.10;61.40
27671;DHT22;15077;49.704;9.908;2023-05-14T03:15:10;13.10;61.40
27671;DHT22;15077;49.704;9.908;2023-05-14T03:17:37;13.00;61.40
27671;DHT22;15077;49.704;9.908;2023-05-14T03:20:05;13.10;61.50
27671;DHT22;15077;49.704;9.908;2023-05-14T03:22:31;13.00;61.50
27671;DHT22;15077;49.704;9.908;2023-05-14T03:24:57;13.00;61.50
27671;DHT22;15077;49.704;9.908;2023-05-14T03:27:23;13.00;61.60
27671;DHT22;15077;49.704;9.908;2023-05-14T03:29:49;13.00;61.80
27671;DHT22;15077;49.704;9.908;2023-05-14T03:32:16;12.90;61.90
27671;DHT22;15077;49.704;9.908;2023-05-14T03:34:43;13.00;61.90
27671;DHT22;15077;49.704;9.908;2023-05-14T03:37:11;12.90;62.10
27671;DHT22;15077;49.704;9.908;2023-05-14T03:39:38;12.90;62.30
27671;DHT22;15077;49.704;9.908;2023-05-14T03:42:05;12.90;62.30
27671;DHT22;15077;49.704;9.908;2023-05-14T03:44:31;12.90;62.30
27671;DHT22;15077;49.704;9.908;2023-05-14T03:46:57;12.90;62.40
27671;DHT22;15077;49.704;9.908;2023-05-14T03:49:24;12.90;62.50
27671;DHT22;15077;49.704;9.908;2023-05-14T03:51:51;12.90;62.60
27671;DHT22;15077;49.704;9.908;2023-05-14T03:54:19;12.90;62.60
27671;DHT22;15077;49.704;9.908;2023-05-14T03:56:46;13.00;62.70
27671;DHT22;15077;49.704;9.908;2023-05-14T03:59:12;13.00;62.70
27671;DHT22;15077;49.704;9.908;2023-05-14T04:01:38;13.00;62.90
27671;DHT22;15077;49.704;9.908;2023-05-14T04:04:04;13.00;62.90
27671;DHT22;15077;49.704;9.908;2023-05-14T04:06:29;13.10;63.00
27671;DHT22;15077;49.704;9.908;2023-05-14T04:08:55;13.10;63.10
27671;DHT22;15077;49.704;9.908;2023-05-14T04:11:21;13.10;63.20
27671;DHT22;15077;49.704;9.908;2023-05-14T04:13:47;13.10;63.10
27671;DHT22;15077;49.704;9.908;2023-05-14T04:16:12;13.20;63.20
27671;DHT22;15077;49.704;9.908;2023-05-14T04:18:38;13.20;63.20
27671;DHT22;15077;49.704;9.908;2023-05-14T04:21:04;13.30;63.20
27671;DHT22;15077;49.704;9.908;2023-05-14T04:23:30;13.30;63.40
27671;DHT22;15077;49.704;9.908;2023-05-14T04:25:56;13.30;63.40
27671;DHT22;15077;49.704;9.908;2023-05-14T04:28:23;13.30;63.40
27671;DHT22;15077;49.704;9.908;2023-05-14T04:30:49;13.40;63.50
27671;DHT22;15077;49.704;9.908;2023-05-14T04:33:15;13.40;63.60
27671;DHT22;15077;49.704;9.908;2023-05-14T04:35:41;13.40;64.20
27671;DHT22;15077;49.704;9.908;2023-05-14T04:38:08;13.40;63.70
27671;DHT22;15077;49.704;9.908;2023-05-14T04:40:34;13.50;63.90
27671;DHT22;15077;49.704;9.908;2023-05-14T04:43:00;13.50;63.90
27671;DHT22;15077;49.704;9.908;2023-05-14T04:45:25;13.50;64.00
27671;DHT22;15077;49.704;9.908;2023-05-14T04:47:51;13.50;64.00
27671;DHT22;15077;49.704;9.908;2023-05-14T04:50:17;13.60;64.20
27671;DHT22;15077;49.704;9.908;2023-05-14T04:52:43;13.60;64.20
27671;DHT22;15077;49.704;9.908;2023-05-14T04:55:09;13.60;64.20
27671;DHT22;15077;49.704;9.908;2023-05-14T04:57:35;13.60;64.30
27671;DHT22;15077;49.704;9.908;2023-05-14T05:00:00;13.70;64.30
27671;DHT22;15077;49.704;9.908;2023-05-14T05:02:26;13.70;64.50
27671;DHT22;15077;49.704;9.908;2023-05-14T05:04:52;13.70;64.60
27671;DHT22;15077;49.704;9.908;2023-05-14T05:07:18;13.80;64.70
27671;DHT22;15077;49.704;9.908;2023-05-14T05:09:43;13.80;64.70
27671;DHT22;15077;49.704;9.908;2023-05-14T05:12:09;13.80;64.60
27671;DHT22;15077;49.704;9.908;2023-05-14T05:14:35;13.80;64.70
27671;DHT22;15077;49.704;9.908;2023-05-14T05:17:00;13.90;64.70
27671;DHT22;15077;49.704;9.908;2023-05-14T05:19:26;13.90;64.80
27671;DHT22;15077;49.704;9.908;2023-05-14T05:21:52;13.90;64.80
27671;DHT22;15077;49.704;9.908;2023-05-14T05:24:18;13.90;64.80
27671;DHT22;15077;49.704;9.908;2023-05-14T05:26:43;14.00;65.00
27671;DHT22;15077;49.704;9.908;2023-05-14T05:29:09;14.00;64.80
27671;DHT22;15077;49.704;9.908;2023-05-14T05:31:35;14.00;65.00
27671;DHT22;15077;49.704;9.908;2023-05-14T05:34:01;14.10;65.10
27671;DHT22;15077;49.704;9.908;2023-05-14T05:36:27;14.10;65.20
27671;DHT22;15077;49.704;9.908;2023-05-14T05:38:54;14.10;65.20
27671;DHT22;15077;49.704;9.908;2023-05-14T05:41:20;14.10;65.40
27671;DHT22;15077;49.704;9.908;2023-05-14T05:43:46;14.20;65.40
27671;DHT22;15077;49.704;9.908;2023-05-14T05:46:12;14.20;65.50
27671;DHT22;15077;49.704;9.908;2023-05-14T05:48:38;14.20;65.50
27671;DHT22;15077;49.704;9.908;2023-05-14T05:51:04;14.20;65.50
27671;DHT22;15077;49.704;9.908;2023-05-14T05:53:30;14.20;65.50
27671;DHT22;15077;49.704;9.908;2023-05-14T05:55:55;14.30;66.00
27671;DHT22;15077;49.704;9.908;2023-05-14T05:58:21;14.30;66.10
27671;DHT22;15077;49.704;9.908;2023-05-14T06:00:47;14.30;66.00
27671;DHT22;15077;49.704;9.908;2023-05-14T06:03:13;14.40;66.10
27671;DHT22;15077;49.704;9.908;2023-05-14T06:05:39;14.40;66.10
27671;DHT22;15077;49.704;9.908;2023-05-14T06:08:05;14.40;66.90
27671;DHT22;15077;49.704;9.908;2023-05-14T06:10:32;14.50;66.70
27671;DHT22;15077;49.704;9.908;2023-05-14T06:12:58;14.50;66.60
27671;DHT22;15077;49.704;9.908;2023-05-14T06:15:24;14.50;66.60
27671;DHT22;15077;49.704;9.908;2023-05-14T06:17:50;14.50;66.70
27671;DHT22;15077;49.704;9.908;2023-05-14T06:20:16;14.60;67.30
27671;DHT22;15077;49.704;9.908;2023-05-14T06:22:41;14.60;67.60
27671;DHT22;15077;49.704;9.908;2023-05-14T06:25:07;14.70;67.50
27671;DHT22;15077;49.704;9.908;2023-05-14T06:27:33;14.70;67.40
27671;DHT22;15077;49.704;9.908;2023-05-14T06:29:59;14.70;67.30
27671;DHT22;15077;49.704;9.908;2023-05-14T06:32:25;14.80;67.30
27671;DHT22;15077;49.704;9.908;2023-05-14T06:34:51;14.80;67.50
27671;DHT22;15077;49.704;9.908;2023-05-14T06:37:17;14.90;67.50
27671;DHT22;15077;49.704;9.908;2023-05-14T06:39:42;14.90;67.90
27671;DHT22;15077;49.704;9.908;2023-05-14T06:42:14;15.00;68.10
27671;DHT22;15077;49.704;9.908;2023-05-14T06:44:41;15.00;68.20
27671;DHT22;15077;49.704;9.908;2023-05-14T06:47:07;15.10;69.00
27671;DHT22;15077;49.704;9.908;2023-05-14T06:49:36;15.10;68.40
27671;DHT22;15077;49.704;9.908;2023-05-14T06:52:02;15.10;68.60
27671;DHT22;15077;49.704;9.908;2023-05-14T06:54:28;15.20;68.30
27671;DHT22;15077;49.704;9.908;2023-05-14T06:56:54;15.20;68.40
27671;DHT22;15077;49.704;9.908;2023-05-14T06:59:20;15.30;68.30
27671;DHT22;15077;49.704;9.908;2023-05-14T07:01:46;15.30;68.60
27671;DHT22;15077;49.704;9.908;2023-05-14T07:04:11;15.30;68.80
27671;DHT22;15077;49.704;9.908;2023-05-14T07:06:37;15.40;68.60
27671;DHT22;15077;49.704;9.908;2023-05-14T07:09:03;15.50;68.50
27671;DHT22;15077;49.704;9.908;2023-05-14T07:11:29;15.50;68.60
27671;DHT22;15077;49.704;9.908;2023-05-14T07:13:54;15.60;68.30
27671;DHT22;15077;49.704;9.908;2023-05-14T07:16:20;15.70;68.40
27671;DHT22;15077;49.704;9.908;2023-05-14T07:18:46;15.70;67.90
27671;DHT22;15077;49.704;9.908;2023-05-14T07:21:12;15.80;68.10
27671;DHT22;15077;49.704;9.908;2023-05-14T07:23:37;15.80;68.00
27671;DHT22;15077;49.704;9.908;2023-05-14T07:26:06;15.90;68.10
27671;DHT22;15077;49.704;9.908;2023-05-14T07:28:33;15.90;67.70
27671;DHT22;15077;49.704;9.908;2023-05-14T07:30:59;16.00;67.60
27671;DHT22;15077;49.704;9.908;2023-05-14T07:33:25;16.10;67.60
27671;DHT22;15077;49.704;9.908;2023-05-14T07:35:51;16.10;67.60
27671;DHT22;15077;49.704;9.908;2023-05-14T07:38:19;16.20;67.70
27671;DHT22;15077;49.704;9.908;2023-05-14T07:40:48;16.20;67.40
27671;DHT22;15077;49.704;9.908;2023-05-14T07:43:13;16.30;67.60
27671;DHT22;15077;49.704;9.908;2023-05-14T07:45:39;16.30;67.70
27671;DHT22;15077;49.704;9.908;2023-05-14T07:48:05;16.40;67.50
27671;DHT22;15077;49.704;9.908;2023-05-14T07:50:31;16.40;67.50
27671;DHT22;15077;49.704;9.908;2023-05-14T07:52:57;16.50;68.00
27671;DHT22;15077;49.704;9.908;2023-05-14T07:55:22;16.60;67.10
27671;DHT22;15077;49.704;9.908;2023-05-14T07:57:48;16.60;67.00
27671;DHT22;15077;49.704;9.908;2023-05-14T08:00:14;16.70;67.10
27671;DHT22;15077;49.704;9.908;2023-05-14T08:02:41;16.80;67.20
27671;DHT22;15077;49.704;9.908;2023-05-14T08:05:07;16.90;66.80
27671;DHT22;15077;49.704;9.908;2023-05-14T08:07:34;17.00;66.80
27671;DHT22;15077;49.704;9.908;2023-05-14T08:10:00;17.10;66.70
27671;DHT22;15077;49.704;9.908;2023-05-14T08:12:26;17.10;66.20
27671;DHT22;15077;49.704;9.908;2023-05-14T08:14:53;17.20;66.40
27671;DHT22;15077;49.704;9.908;2023-05-14T08:17:18;17.30;66.50
27671;DHT22;15077;49.704;9.908;2023-05-14T08:19:44;17.30;66.10
27671;DHT22;15077;49.704;9.908;2023-05-14T08:22:11;17.40;66.00
27671;DHT22;15077;49.704;9.908;2023-05-14T08:24:37;17.50;66.00
27671;DHT22;15077;49.704;9.908;2023-05-14T08:27:03;17.50;66.00
27671;DHT22;15077;49.704;9.908;2023-05-14T08:29:29;17.60;66.00
27671;DHT22;15077;49.704;9.908;2023-05-14T08:31:55;17.70;66.00
27671;DHT22;15077;49.704;9.908;2023-05-14T08:34:22;17.80;65.60
27671;DHT22;15077;49.704;9.908;2023-05-14T08:36:48;17.90;65.40
27671;DHT22;15077;49.704;9.908;2023-05-14T08:39:13;17.90;65.30
27671;DHT22;15077;49.704;9.908;2023-05-14T08:41:39;18.00;65.10
27671;DHT22;15077;49.704;9.908;2023-05-14T08:44:14;18.10;64.30
27671;DHT22;15077;49.704;9.908;2023-05-14T08:46:43;18.10;64.20
27671;DHT22;15077;49.704;9.908;2023-05-14T08:52:06;18.10;63.80
27671;DHT22;15077;49.704;9.908;2023-05-14T08:54:34;18.10;63.50
27671;DHT22;15077;49.704;9.908;2023-05-14T08:57:02;18.10;63.50
27671;DHT22;15077;49.704;9.908;2023-05-14T08:59:28;18.10;63.70
27671;DHT22;15077;49.704;9.908;2023-05-14T09:01:55;18.10;63.80
27671;DHT22;15077;49.704;9.908;2023-05-14T09:04:25;18.10;63.60
27671;DHT22;15077;49.704;9.908;2023-05-14T09:06:52;18.10;63.80
27671;DHT22;15077;49.704;9.908;2023-05-14T09:09:19;18.10;63.80
27671;DHT22;15077;49.704;9.908;2023-05-14T09:11:50;18.20;63.80
27671;DHT22;15077;49.704;9.908;2023-05-14T09:14:17;18.20;63.80
27671;DHT22;15077;49.704;9.908;2023-05-14T09:16:45;18.30;63.90
27671;DHT22;15077;49.704;9.908;2023-05-14T09:19:12;18.30;63.50
27671;DHT22;15077;49.704;9.908;2023-05-14T09:21:40;18.40;63.40
27671;DHT22;15077;49.704;9.908;2023-05-14T09:24:07;18.40;63.00
27671;DHT22;15077;49.704;9.908;2023-05-14T09:26:34;18.50;63.30
27671;DHT22;15077;49.704;9.908;2023-05-14T09:29:00;18.50;63.10
27671;DHT22;15077;49.704;9.908;2023-05-14T09:31:31;18.50;63.20
27671;DHT22;15077;49.704;9.908;2023-05-14T09:33:58;18.60;62.90
27671;DHT22;15077;49.704;9.908;2023-05-14T09:36:25;18.70;62.70
27671;DHT22;15077;49.704;9.908;2023-05-14T09:38:52;18.70;62.80
27671;DHT22;15077;49.704;9.908;2023-05-14T09:41:21;18.70;62.50
27671;DHT22;15077;49.704;9.908;2023-05-14T09:43:49;18.70;62.70
27671;DHT22;15077;49.704;9.908;2023-05-14T09:46:15;18.80;62.30
27671;DHT22;15077;49.704;9.908;2023-05-14T09:48:41;18.80;62.20
27671;DHT22;15077;49.704;9.908;2023-05-14T09:51:08;18.80;62.40
27671;DHT22;15077;49.704;9.908;2023-05-14T09:53:34;18.80;62.60
27671;DHT22;15077;49.704;9.908;2023-05-14T09:56:00;18.80;62.60
27671;DHT22;15077;49.704;9.908;2023-05-14T09:58:26;18.90;62.60
27671;DHT22;15077;49.704;9.908;2023-05-14T10:00:52;18.90;62.30
27671;DHT22;15077;49.704;9.908;2023-05-14T10:03:19;19.00;62.50
27671;DHT22;15077;49.704;9.908;2023-05-14T10:05:48;19.00;62.50
27671;DHT22;15077;49.704;9.908;2023-05-14T10:10:50;19.00;62.10
27671;DHT22;15077;49.704;9.908;2023-05-14T10:13:21;19.00;62.30
27671;DHT22;15077;49.704;9.908;2023-05-14T10:15:59;19.00;62.10
27671;DHT22;15077;49.704;9.908;2023-05-14T10:18:30;19.10;62.20
27671;DHT22;15077;49.704;9.908;2023-05-14T10:21:05;19.00;61.70
27671;DHT22;15077;49.704;9.908;2023-05-14T10:23:33;19.00;62.10
27671;DHT22;15077;49.704;9.908;2023-05-14T10:26:02;19.10;62.30
27671;DHT22;15077;49.704;9.908;2023-05-14T10:28:30;19.10;62.00
27671;DHT22;15077;49.704;9.908;2023-05-14T10:30:56;19.10;61.80
27671;DHT22;15077;49.704;9.908;2023-05-14T10:33:24;19.10;61.30
27671;DHT22;15077;49.704;9.908;2023-05-14T10:36:01;19.10;61.30
27671;DHT22;15077;49.704;9.908;2023-05-14T10:38:36;19.10;61.40
27671;DHT22;15077;49.704;9.908;2023-05-14T10:41:04;19.20;61.50
27671;DHT22;15077;49.704;9.908;2023-05-14T10:43:41;19.20;61.30
27671;DHT22;15077;49.704;9.908;2023-05-14T10:46:10;19.20;61.40
27671;DHT22;15077;49.704;9.908;2023-05-14T10:48:40;19.20;60.80
27671;DHT22;15077;49.704;9.908;2023-05-14T10:51:11;19.30;61.30
27671;DHT22;15077;49.704;9.908;2023-05-14T10:53:39;19.30;61.40
27671;DHT22;15077;49.704;9.908;2023-05-14T10:56:08;19.30;61.40
27671;DHT22;15077;49.704;9.908;2023-05-14T10:58:39;19.30;61.30
27671;DHT22;15077;49.704;9.908;2023-05-14T11:01:08;19.40;61.10
27671;DHT22;15077;49.704;9.908;2023-05-14T11:03:43;19.40;61.00
27671;DHT22;15077;49.704;9.908;2023-05-14T11:06:12;19.50;60.70
27671;DHT22;15077;49.704;9.908;2023-05-14T11:08:39;19.50;60.40
27671;DHT22;15077;49.704;9.908;2023-05-14T11:11:07;19.50;60.40
27671;DHT22;15077;49.704;9.908;2023-05-14T11:13:34;19.60;60.60
27671;DHT22;15077;49.704;9.908;2023-05-14T11:16:01;19.60;60.30
27671;DHT22;15077;49.704;9.908;2023-05-14T11:18:34;19.60;60.20
27671;DHT22;15077;49.704;9.908;2023-05-14T11:21:03;19.70;60.40
27671;DHT22;15077;49.704;9.908;2023-05-14T11:23:28;19.80;60.20
27671;DHT22;15077;49.704;9.908;2023-05-14T11:25:55;19.80;60.60
27671;DHT22;15077;49.704;9.908;2023-05-14T11:28:22;19.90;60.20
27671;DHT22;15077;49.704;9.908;2023-05-14T11:30:50;19.90;60.20
27671;DHT22;15077;49.704;9.908;2023-05-14T11:33:17;20.00;60.30
27671;DHT22;15077;49.704;9.908;2023-05-14T11:35:45;20.10;60.20
27671;DHT22;15077;49.704;9.908;2023-05-14T11:38:19;20.20;60.20
27671;DHT22;15077;49.704;9.908;2023-05-14T11:40:55;20.30;59.90
27671;DHT22;15077;49.704;9.908;2023-05-14T11:43:23;20.40;59.90
27671;DHT22;15077;49.704;9.908;2023-05-14T11:45:53;20.40;59.30
27671;DHT22;15077;49.704;9.908;2023-05-14T11:48:20;20.50;59.10
27671;DHT22;15077;49.704;9.908;2023-05-14T11:50:48;20.50;59.30
27671;DHT22;15077;49.704;9.908;2023-05-14T11:53:19;20.50;59.10
27671;DHT22;15077;49.704;9.908;2023-05-14T11:55:52;20.50;59.20
27671;DHT22;15077;49.704;9.908;2023-05-14T11:58:19;20.50;59.20
27671;DHT22;15077;49.704;9.908;2023-05-14T12:00:49;20.50;59.20
27671;DHT22;15077;49.704;9.908;2023-05-14T12:03:15;20.60;59.00
27671;DHT22;15077;49.704;9.908;2023-05-14T12:05:57;20.60;58.60
27671;DHT22;15077;49.704;9.908;2023-05-14T12:08:28;20.60;58.10
27671;DHT22;15077;49.704;9.908;2023-05-14T12:10:57;20.60;57.50
27671;DHT22;15077;49.704;9.908;2023-05-14T12:13:29;20.60;57.40
27671;DHT22;15077;49.704;9.908;2023-05-14T12:15:58;20.60;57.20
27671;DHT22;15077;49.704;9.908;2023-05-14T12:18:27;20.60;57.40
27671;DHT22;15077;49.704;9.908;2023-05-14T12:20:54;20.60;57.70
27671;DHT22;15077;49.704;9.908;2023-05-14T12:23:29;20.60;57.80
27671;DHT22;15077;49.704;9.908;2023-05-14T12:26:06;20.60;57.90
27671;DHT22;15077;49.704;9.908;2023-05-14T12:28:33;20.70;57.90
27671;DHT22;15077;49.704;9.908;2023-05-14T12:31:00;20.70;57.90
27671;DHT22;15077;49.704;9.908;2023-05-14T12:33:26;20.80;57.40
27671;DHT22;15077;49.704;9.908;2023-05-14T12:35:52;20.80;56.20
27671;DHT22;15077;49.704;9.908;2023-05-14T12:38:19;20.80;56.40
27671;DHT22;15077;49.704;9.908;2023-05-14T12:40:44;20.80;56.40
27671;DHT22;15077;49.704;9.908;2023-05-14T12:43:10;20.80;56.60
27671;DHT22;15077;49.704;9.908;2023-05-14T12:45:36;20.80;56.60
27671;DHT22;15077;49.704;9.908;2023-05-14T12:48:01;20.80;56.50
27671;DHT22;15077;49.704;9.908;2023-05-14T12:50:28;20.80;56.20
27671;DHT22;15077;49.704;9.908;2023-05-14T12:52:54;20.80;56.70
27671;DHT22;15077;49.704;9.908;2023-05-14T12:55:20;20.90;55.90
27671;DHT22;15077;49.704;9.908;2023-05-14T12:57:45;21.00;56.40
27671;DHT22;15077;49.704;9.908;2023-05-14T13:00:11;21.10;56.00
27671;DHT22;15077;49.704;9.908;2023-05-14T13:02:37;21.10;55.20
27671;DHT22;15077;49.704;9.908;2023-05-14T13:05:03;21.10;55.40
27671;DHT22;15077;49.704;9.908;2023-05-14T13:07:30;21.10;55.60
27671;DHT22;15077;49.704;9.908;2023-05-14T13:09:56;21.10;55.40
27671;DHT22;15077;49.704;9.908;2023-05-14T13:12:22;21.10;55.20
27671;DHT22;15077;49.704;9.908;2023-05-14T13:14:48;21.10;56.00
27671;DHT22;15077;49.704;9.908;2023-05-14T13:17:14;21.20;56.20
27671;DHT22;15077;49.704;9.908;2023-05-14T13:19:40;21.30;55.30
27671;DHT22;15077;49.704;9.908;2023-05-14T13:22:06;21.40;54.30
27671;DHT22;15077;49.704;9.908;2023-05-14T13:24:33;21.50;55.00
27671;DHT22;15077;49.704;9.908;2023-05-14T13:26:59;21.60;54.20
27671;DHT22;15077;49.704;9.908;2023-05-14T13:29:25;21.60;54.30
27671;DHT22;15077;49.704;9.908;2023-05-14T13:31:53;21.60;54.60
27671;DHT22;15077;49.704;9.908;2023-05-14T13:34:19;21.60;54.40
27671;DHT22;15077;49.704;9.908;2023-05-14T13:36:45;21.60;54.50
27671;DHT22;15077;49.704;9.908;2023-05-14T13:39:11;21.60;54.00
27671;DHT22;15077;49.704;9.908;2023-05-14T13:41:37;21.60;53.80
27671;DHT22;15077;49.704;9.908;2023-05-14T13:44:03;21.60;53.70
27671;DHT22;15077;49.704;9.908;2023-05-14T13:46:29;21.60;53.90
27671;DHT22;15077;49.704;9.908;2023-05-14T13:48:55;21.60;54.70
27671;DHT22;15077;49.704;9.908;2023-05-14T13:51:22;21.70;54.50
27671;DHT22;15077;49.704;9.908;2023-05-14T13:53:48;21.70;54.50
27671;DHT22;15077;49.704;9.908;2023-05-14T13:56:14;21.70;54.90
27671;DHT22;15077;49.704;9.908;2023-05-14T13:58:39;21.80;55.70
27671;DHT22;15077;49.704;9.908;2023-05-14T14:01:05;21.90;53.60
27671;DHT22;15077;49.704;9.908;2023-05-14T14:03:31;21.90;54.00
27671;DHT22;15077;49.704;9.908;2023-05-14T14:05:57;22.00;54.20
27671;DHT22;15077;49.704;9.908;2023-05-14T14:08:23;22.00;53.80
27671;DHT22;15077;49.704;9.908;2023-05-14T14:10:49;22.10;53.60
27671;DHT22;15077;49.704;9.908;2023-05-14T14:13:15;22.20;52.90
27671;DHT22;15077;49.704;9.908;2023-05-14T14:15:40;22.20;52.80
27671;DHT22;15077;49.704;9.908;2023-05-14T14:18:07;22.20;52.70
27671;DHT22;15077;49.704;9.908;2023-05-14T14:20:32;22.30;52.90
27671;DHT22;15077;49.704;9.908;2023-05-14T14:22:58;22.30;51.70
27671;DHT22;15077;49.704;9.908;2023-05-14T14:25:24;22.40;52.40
27671;DHT22;15077;49.704;9.908;2023-05-14T14:27:50;22.40;52.70
27671;DHT22;15077;49.704;9.908;2023-05-14T14:30:15;22.50;52.20
27671;DHT22;15077;49.704;9.908;2023-05-14T14:32:45;22.50;52.10
27671;DHT22;15077;49.704;9.908;2023-05-14T14:35:14;22.50;52.20
27671;DHT22;15077;49.704;9.908;2023-05-14T14:37:42;22.60;52.70
27671;DHT22;15077;49.704;9.908;2023-05-14T14:40:13;22.60;52.20
27671;DHT22;15077;49.704;9.908;2023-05-14T14:42:39;22.70;51.40
27671;DHT22;15077;49.704;9.908;2023-05-14T14:45:08;22.80;51.70
27671;DHT22;15077;49.704;9.908;2023-05-14T14:47:34;22.80;51.70
27671;DHT22;15077;49.704;9.908;2023-05-14T14:50:00;22.90;51.80
27671;DHT22;15077;49.704;9.908;2023-05-14T14:52:26;22.90;52.10
27671;DHT22;15077;49.704;9.908;2023-05-14T14:54:53;23.00;52.10
27671;DHT22;15077;49.704;9.908;2023-05-14T14:57:23;23.00;52.20
27671;DHT22;15077;49.704;9.908;2023-05-14T14:59:48;23.10;52.30
27671;DHT22;15077;49.704;9.908;2023-05-14T15:02:14;23.10;51.80
27671;DHT22;15077;49.704;9.908;2023-05-14T15:04:40;23.20;51.80
27671;DHT22;15077;49.704;9.908;2023-05-14T15:07:06;23.30;51.70
27671;DHT22;15077;49.704;9.908;2023-05-14T15:09:32;23.30;51.60
27671;DHT22;15077;49.704;9.908;2023-05-14T15:11:58;23.40;51.30
27671;DHT22;15077;49.704;9.908;2023-05-14T15:14:24;23.50;51.20
27671;DHT22;15077;49.704;9.908;2023-05-14T15:16:50;23.50;51.00
27671;DHT22;15077;49.704;9.908;2023-05-14T15:19:15;23.60;50.70
27671;DHT22;15077;49.704;9.908;2023-05-14T15:21:41;23.60;50.50
27671;DHT22;15077;49.704;9.908;2023-05-14T15:24:10;23.70;49.30
27671;DHT22;15077;49.704;9.908;2023-05-14T15:26:37;23.70;49.80
27671;DHT22;15077;49.704;9.908;2023-05-14T15:29:03;23.70;49.40
27671;DHT22;15077;49.704;9.908;2023-05-14T15:31:30;23.70;49.40
27671;DHT22;15077;49.704;9.908;2023-05-14T15:33:56;23.80;49.70
27671;DHT22;15077;49.704;9.908;2023-05-14T15:36:22;23.80;49.30
27671;DHT22;15077;49.704;9.908;2023-05-14T15:38:48;23.70;49.30
27671;DHT22;15077;49.704;9.908;2023-05-14T15:41:14;23.70;49.70